createdAt,value
2017-11-12T00:00:43.502Z,110.5
2017-11-12T00:01:48.476Z,86.1
2017-11-12T00:02:44.041Z,88.5
2017-11-12T00:03:43.444Z,89.3
2017-11-12T00:04:43.417Z,89.7
2017-11-12T00:05:43.478Z,89.9
2017-11-12T00:06:43.445Z,89.9
2017-11-12T00:07:45.440Z,90
2017-11-12T00:08:44.227Z,90
2017-11-12T00:09:44.164Z,90
2017-11-12T00:10:54.196Z,90
2017-11-12T00:11:43.409Z,73.1
2017-11-12T00:12:45.758Z,57.6
2017-11-12T00:13:43.718Z,66.8
2017-11-12T00:14:43.924Z,79.6
2017-11-12T00:15:43.911Z,85.3
2017-11-12T00:16:44.080Z,87.8
2017-11-12T00:17:43.922Z,89
2017-11-12T00:18:44.130Z,89.5
2017-11-12T00:19:43.863Z,89.8
2017-11-12T00:20:43.751Z,89.9
2017-11-12T00:21:43.884Z,72.1
2017-11-12T00:22:43.346Z,56.7
2017-11-12T00:23:43.386Z,50.4
2017-11-12T00:24:46.117Z,45.3
2017-11-12T00:25:43.332Z,103.5
2017-11-12T00:26:43.426Z,121.8
2017-11-12T00:27:45.881Z,128
2017-11-12T00:28:43.743Z,235.2
2017-11-12T00:29:43.878Z,294.5
2017-11-12T00:30:44.313Z,308.1
2017-11-12T00:31:43.971Z,312.2
2017-11-12T00:32:43.817Z,312.1
2017-11-12T00:33:46.953Z,313.8
2017-11-12T00:34:48.784Z,314.5
2017-11-12T00:35:43.699Z,303.4
2017-11-12T00:36:43.792Z,72.1
2017-11-12T00:37:43.670Z,52.5
2017-11-12T00:38:43.790Z,87.7
2017-11-12T00:39:43.633Z,102.6
2017-11-12T00:40:43.278Z,77
2017-11-12T00:41:43.519Z,58.3
2017-11-12T00:42:43.345Z,60.1
2017-11-12T00:43:45.656Z,164.3
2017-11-12T00:44:46.034Z,214.2
2017-11-12T00:45:45.144Z,220.9
2017-11-12T00:46:45.976Z,223.3
2017-11-12T00:47:43.343Z,224
2017-11-12T00:48:43.324Z,224.5
2017-11-12T00:49:47.387Z,224.8
2017-11-12T00:50:43.764Z,224.9
2017-11-12T00:51:44.092Z,225
2017-11-12T00:52:45.913Z,225
2017-11-12T00:53:43.920Z,224.7
2017-11-12T00:54:43.783Z,224.9
2017-11-12T00:55:43.832Z,242.6
2017-11-12T00:56:46.438Z,257.7
2017-11-12T00:57:47.498Z,200.7
2017-11-12T00:58:43.325Z,167
2017-11-12T00:59:49.010Z,205.5
2017-11-12T01:00:43.352Z,215.8
2017-11-12T01:01:43.497Z,221
2017-11-12T01:02:43.313Z,223.2
2017-11-12T01:03:43.287Z,224.2
2017-11-12T01:04:43.344Z,247.1
2017-11-12T01:05:43.385Z,48.8
2017-11-12T01:06:43.365Z,54.8
2017-11-12T01:07:43.422Z,45.9
2017-11-12T01:08:43.315Z,18.6
2017-11-12T01:09:43.274Z,7.9
2017-11-12T01:10:43.321Z,13.4
2017-11-12T01:11:43.440Z,99.3
2017-11-12T01:12:43.305Z,125.8
2017-11-12T01:13:43.431Z,131.4
2017-11-12T01:14:43.386Z,133.7
2017-11-12T01:15:43.256Z,130.8
2017-11-12T01:16:43.315Z,126.5
2017-11-12T01:17:43.385Z,131.1
2017-11-12T01:18:43.313Z,120.2
2017-11-12T01:19:43.304Z,116
2017-11-12T01:20:43.294Z,122
2017-11-12T01:21:46.182Z,125.8
2017-11-12T01:22:43.328Z,118.4
2017-11-12T01:23:46.313Z,115.2
2017-11-12T01:24:43.279Z,113.8
2017-11-12T01:25:43.331Z,117.6
2017-11-12T01:26:43.259Z,126.7
2017-11-12T01:27:43.395Z,131.2
2017-11-12T01:28:43.271Z,133.2
2017-11-12T01:29:43.312Z,134.2
2017-11-12T01:30:43.325Z,134.6
2017-11-12T01:31:43.367Z,134.8
2017-11-12T01:32:43.470Z,134.9
2017-11-12T01:33:43.328Z,135
2017-11-12T01:34:43.353Z,135
2017-11-12T01:35:43.371Z,135
2017-11-12T01:36:43.253Z,135
2017-11-12T01:37:43.538Z,135
2017-11-12T01:38:43.322Z,135
2017-11-12T01:39:43.285Z,135
2017-11-12T01:40:43.277Z,135
2017-11-12T01:41:43.323Z,135
2017-11-12T01:42:43.385Z,135
2017-11-12T01:43:43.369Z,135
2017-11-12T01:44:43.329Z,115.3
2017-11-12T01:45:43.241Z,101.3
2017-11-12T01:46:43.322Z,95.1
2017-11-12T01:47:43.366Z,92.4
2017-11-12T01:48:43.326Z,91.1
2017-11-12T01:49:43.293Z,90.5
2017-11-12T01:50:43.294Z,90.2
2017-11-12T01:51:43.305Z,90.1
2017-11-12T01:52:43.425Z,90.1
2017-11-12T01:53:43.303Z,90
2017-11-12T01:54:49.169Z,90
2017-11-12T01:55:43.274Z,90
2017-11-12T01:56:43.236Z,90
2017-11-12T01:57:43.433Z,90
2017-11-12T01:58:43.272Z,90
2017-11-12T01:59:43.251Z,101.4
2017-11-12T02:00:43.372Z,107.4
2017-11-12T02:01:43.336Z,110.1
2017-11-12T02:02:43.314Z,111.4
2017-11-12T02:03:43.232Z,112
2017-11-12T02:04:43.293Z,112.3
2017-11-12T02:05:43.271Z,112.4
2017-11-12T02:06:43.308Z,112.4
2017-11-12T02:07:43.380Z,112.5
2017-11-12T02:08:43.300Z,112.5
2017-11-12T02:09:43.285Z,112.5
2017-11-12T02:10:43.340Z,112.5
2017-11-12T02:11:43.257Z,112.5
2017-11-12T02:12:43.341Z,120
2017-11-12T02:13:43.231Z,128
2017-11-12T02:14:43.330Z,131.8
2017-11-12T02:15:43.329Z,133.5
2017-11-12T02:16:43.328Z,134.3
2017-11-12T02:17:43.330Z,134.7
2017-11-12T02:18:43.315Z,134.8
2017-11-12T02:19:43.278Z,134.9
2017-11-12T02:20:43.225Z,135
2017-11-12T02:21:43.278Z,135
2017-11-12T02:22:43.340Z,135
2017-11-12T02:23:43.326Z,135
2017-11-12T02:24:43.218Z,135
2017-11-12T02:25:43.296Z,135
2017-11-12T02:26:43.283Z,135
2017-11-12T02:27:43.319Z,135
2017-11-12T02:28:43.302Z,135
2017-11-12T02:29:43.222Z,135
2017-11-12T02:30:43.215Z,135
2017-11-12T02:31:43.323Z,135
2017-11-12T02:32:43.239Z,135
2017-11-12T02:33:43.291Z,135
2017-11-12T02:34:43.227Z,135
2017-11-12T02:35:43.233Z,135
2017-11-12T02:36:43.309Z,135
2017-11-12T02:37:43.226Z,135
2017-11-12T02:38:43.335Z,135
2017-11-12T02:39:43.218Z,135
2017-11-12T02:40:43.288Z,135
2017-11-12T02:41:43.235Z,135
2017-11-12T02:42:43.238Z,135
2017-11-12T02:43:43.329Z,135
2017-11-12T02:44:43.257Z,135
2017-11-12T02:45:43.252Z,135
2017-11-12T02:46:43.290Z,135
2017-11-12T02:47:43.217Z,135
2017-11-12T02:48:43.405Z,135
2017-11-12T02:49:43.234Z,158.7
2017-11-12T02:50:43.282Z,147
2017-11-12T02:51:43.217Z,147.3
2017-11-12T02:52:43.313Z,140.6
2017-11-12T02:53:43.317Z,137.6
2017-11-12T02:54:43.357Z,136.2
2017-11-12T02:55:43.237Z,135.6
2017-11-12T02:56:43.279Z,144.6
2017-11-12T02:57:43.312Z,149.5
2017-11-12T02:58:43.311Z,165.9
2017-11-12T02:59:43.293Z,177.8
2017-11-12T03:00:43.255Z,203.1
2017-11-12T03:01:43.286Z,191.6
2017-11-12T03:02:43.190Z,185.2
2017-11-12T03:03:43.315Z,182.4
2017-11-12T03:04:43.210Z,181.1
2017-11-12T03:05:43.257Z,180.5
2017-11-12T03:06:43.244Z,171
2017-11-12T03:07:43.227Z,175.9
2017-11-12T03:08:43.274Z,176.9
2017-11-12T03:09:43.256Z,170.3
2017-11-12T03:10:43.277Z,204
2017-11-12T03:11:43.290Z,197.4
2017-11-12T03:12:43.309Z,188.2
2017-11-12T03:13:43.328Z,203.8
2017-11-12T03:14:43.230Z,203.6
2017-11-12T03:15:43.295Z,183.1
2017-11-12T03:16:43.243Z,152
2017-11-12T03:17:43.244Z,141.8
2017-11-12T03:18:43.278Z,138
2017-11-12T03:19:43.266Z,136.4
2017-11-12T03:20:43.226Z,135.6
2017-11-12T03:21:43.305Z,126
2017-11-12T03:22:43.266Z,118.7
2017-11-12T03:23:43.230Z,115.4
2017-11-12T03:24:43.239Z,51.4
2017-11-12T03:25:43.159Z,15.9
2017-11-12T03:26:43.280Z,348.7
2017-11-12T03:27:43.176Z,339
2017-11-12T03:28:43.272Z,87
2017-11-12T03:29:43.237Z,127.5
2017-11-12T03:30:43.305Z,132.4
2017-11-12T03:31:43.340Z,133.9
2017-11-12T03:32:43.202Z,134.5
2017-11-12T03:33:43.224Z,135.1
2017-11-12T03:34:43.292Z,127.4
2017-11-12T03:35:43.204Z,131.5
2017-11-12T03:36:43.246Z,133.4
2017-11-12T03:37:43.213Z,134.3
2017-11-12T03:38:43.241Z,134.7
2017-11-12T03:39:43.302Z,134.8
2017-11-12T03:40:43.212Z,134.9
2017-11-12T03:41:43.204Z,135
2017-11-12T03:42:43.280Z,135
2017-11-12T03:43:43.204Z,135
2017-11-12T03:44:43.225Z,135
2017-11-12T03:45:43.228Z,135
2017-11-12T03:46:43.177Z,135
2017-11-12T03:47:43.215Z,135
2017-11-12T03:48:43.202Z,130.5
2017-11-12T03:49:43.341Z,120.8
2017-11-12T03:50:43.264Z,116.4
2017-11-12T03:51:43.189Z,114.3
2017-11-12T03:52:43.340Z,113.3
2017-11-12T03:53:43.232Z,124
2017-11-12T03:54:43.305Z,129.9
2017-11-12T03:55:43.210Z,132.6
2017-11-12T03:56:43.239Z,133.9
2017-11-12T03:57:43.217Z,134.5
2017-11-12T03:58:43.197Z,134.8
2017-11-12T03:59:43.297Z,134.9
2017-11-12T04:00:43.184Z,134.9
2017-11-12T04:01:43.212Z,135
2017-11-12T04:02:43.248Z,135
2017-11-12T04:03:43.177Z,135
2017-11-12T04:04:43.322Z,135
2017-11-12T04:05:43.198Z,135
2017-11-12T04:06:43.216Z,135
2017-11-12T04:07:43.171Z,135
2017-11-12T04:08:43.208Z,135
2017-11-12T04:09:43.593Z,135
2017-11-12T04:10:43.219Z,135
2017-11-12T04:11:43.220Z,135
2017-11-12T04:12:43.214Z,135
2017-11-12T04:13:43.234Z,135
2017-11-12T04:14:43.285Z,135
2017-11-12T04:15:43.268Z,135
2017-11-12T04:16:43.187Z,135
2017-11-12T04:17:43.210Z,134.5
2017-11-12T04:18:43.225Z,134.8
2017-11-12T04:19:43.271Z,117.7
2017-11-12T04:20:43.204Z,125.5
2017-11-12T04:21:43.205Z,132.5
2017-11-12T04:22:43.228Z,133.5
2017-11-12T04:23:43.286Z,126.8
2017-11-12T04:24:43.278Z,114
2017-11-12T04:25:43.193Z,151.5
2017-11-12T04:26:43.249Z,134.6
2017-11-12T04:27:43.289Z,143.1
2017-11-12T04:28:43.190Z,149.4
2017-11-12T04:29:43.272Z,164.8
2017-11-12T04:30:43.180Z,157.4
2017-11-12T04:31:43.143Z,147.5
2017-11-12T04:32:43.254Z,140.3
2017-11-12T04:33:43.202Z,132.4
2017-11-12T04:34:43.283Z,146.4
2017-11-12T04:35:43.191Z,84.4
2017-11-12T04:36:43.204Z,76.6
2017-11-12T04:37:43.289Z,45.2
2017-11-12T04:38:43.226Z,0.3
2017-11-12T04:39:43.286Z,107.4
2017-11-12T04:40:43.212Z,165.1
2017-11-12T04:41:43.168Z,198.8
2017-11-12T04:42:43.247Z,190
2017-11-12T04:43:43.192Z,165.3
2017-11-12T04:44:43.377Z,114.4
2017-11-12T04:45:43.236Z,98.9
2017-11-12T04:46:43.239Z,93.8
2017-11-12T04:47:43.218Z,91.7
2017-11-12T04:48:43.220Z,90.8
2017-11-12T04:49:43.327Z,90.4
2017-11-12T04:50:43.192Z,90.2
2017-11-12T04:51:43.173Z,38.8
2017-11-12T04:52:43.170Z,66.8
2017-11-12T04:53:43.203Z,18.6
2017-11-12T04:54:43.190Z,1.2
2017-11-12T04:55:43.148Z,184.4
2017-11-12T04:56:43.183Z,200
2017-11-12T04:57:50.293Z,138.6
2017-11-12T04:58:43.157Z,111.8
2017-11-12T04:59:43.279Z,110.3
2017-11-12T05:00:43.171Z,115.5
2017-11-12T05:01:43.206Z,116.6
2017-11-12T05:02:43.190Z,126.7
2017-11-12T05:03:43.167Z,128
2017-11-12T05:04:43.224Z,119.6
2017-11-12T05:05:43.140Z,115.8
2017-11-12T05:06:43.243Z,114
2017-11-12T05:07:43.167Z,117.8
2017-11-12T05:08:43.207Z,126.5
2017-11-12T05:09:43.180Z,131.1
2017-11-12T05:10:43.203Z,132.2
2017-11-12T05:11:43.112Z,124.9
2017-11-12T05:12:43.181Z,124.4
2017-11-12T05:13:43.196Z,129.4
2017-11-12T05:14:43.167Z,128.7
2017-11-12T05:15:43.240Z,131.1
2017-11-12T05:16:43.117Z,133.2
2017-11-12T05:17:43.146Z,134.2
2017-11-12T05:18:43.209Z,134.6
2017-11-12T05:19:43.195Z,134.8
2017-11-12T05:20:43.200Z,134.9
2017-11-12T05:21:43.116Z,135
2017-11-12T05:22:43.142Z,135
2017-11-12T05:23:43.150Z,131.4
2017-11-12T05:24:43.153Z,121.3
2017-11-12T05:25:43.265Z,121.6
2017-11-12T05:26:43.143Z,128.8
2017-11-12T05:27:43.208Z,132.1
2017-11-12T05:28:43.141Z,133.7
2017-11-12T05:29:43.180Z,134.4
2017-11-12T05:30:43.269Z,134.7
2017-11-12T05:31:43.230Z,134.9
2017-11-12T05:32:43.169Z,134.9
2017-11-12T05:33:43.192Z,135
2017-11-12T05:34:44.449Z,135
2017-11-12T05:35:43.193Z,135
2017-11-12T05:36:43.156Z,135
2017-11-12T05:37:43.181Z,135
2017-11-12T05:38:43.219Z,135
2017-11-12T05:39:43.165Z,135
2017-11-12T05:40:43.281Z,135
2017-11-12T05:41:43.192Z,135
2017-11-12T05:42:43.144Z,135
2017-11-12T05:43:43.114Z,135
2017-11-12T05:44:43.192Z,135
2017-11-12T05:45:43.207Z,135
2017-11-12T05:46:43.155Z,135
2017-11-12T05:47:43.145Z,135
2017-11-12T05:48:43.134Z,135
2017-11-12T05:49:43.107Z,135
2017-11-12T05:50:43.233Z,135
2017-11-12T05:51:43.178Z,135
2017-11-12T05:52:43.153Z,135
2017-11-12T05:53:43.139Z,135
2017-11-12T05:54:43.161Z,135
2017-11-12T05:55:43.329Z,135
2017-11-12T05:56:43.157Z,135
2017-11-12T05:57:43.175Z,135
2017-11-12T05:58:43.169Z,135
2017-11-12T05:59:43.213Z,135
2017-11-12T06:00:43.317Z,135
2017-11-12T06:01:43.478Z,135
2017-11-12T06:02:43.156Z,135
2017-11-12T06:03:43.194Z,135
2017-11-12T06:04:43.159Z,135
2017-11-12T06:05:43.160Z,135
2017-11-12T06:06:43.122Z,135
2017-11-12T06:07:43.156Z,135
2017-11-12T06:08:43.192Z,135
2017-11-12T06:09:43.156Z,135
2017-11-12T06:10:43.133Z,135
2017-11-12T06:11:43.175Z,135
2017-11-12T06:12:43.141Z,135
2017-11-12T06:13:43.126Z,135
2017-11-12T06:14:43.111Z,135
2017-11-12T06:15:43.059Z,132.9
2017-11-12T06:16:43.238Z,134
2017-11-12T06:17:43.198Z,134.5
2017-11-12T06:18:43.095Z,130.9
2017-11-12T06:19:43.160Z,129.3
2017-11-12T06:20:43.111Z,130
2017-11-12T06:21:43.185Z,124.9
2017-11-12T06:22:43.297Z,127.8
2017-11-12T06:23:46.643Z,126.7
2017-11-12T06:24:44.848Z,131.2
2017-11-12T06:25:47.686Z,131.9
2017-11-12T06:26:47.952Z,145.1
2017-11-12T06:27:46.899Z,164.2
2017-11-12T06:28:44.130Z,183.5
2017-11-12T06:29:45.973Z,181.5
2017-11-12T06:30:43.852Z,181.2
2017-11-12T06:31:46.108Z,180.5
2017-11-12T06:32:43.975Z,180.8
2017-11-12T06:33:45.027Z,180.4
2017-11-12T06:34:44.111Z,180.2
2017-11-12T06:35:43.845Z,180.1
2017-11-12T06:36:43.864Z,180.8
2017-11-12T06:37:43.939Z,180.4
2017-11-12T06:38:43.764Z,180.2
2017-11-12T06:39:44.012Z,180.6
2017-11-12T06:40:46.235Z,180.3
2017-11-12T06:41:46.979Z,180.6
2017-11-12T06:42:43.905Z,180.8
2017-11-12T06:43:43.905Z,181
2017-11-12T06:44:45.679Z,164.1
2017-11-12T06:45:43.090Z,160.8
2017-11-12T06:46:47.463Z,159
2017-11-12T06:47:48.649Z,146.9
2017-11-12T06:48:43.130Z,162.1
2017-11-12T06:49:43.132Z,168.6
2017-11-12T06:50:43.086Z,162.1
2017-11-12T06:51:43.217Z,151.1
2017-11-12T06:52:43.155Z,155.2
2017-11-12T06:53:43.134Z,164
2017-11-12T06:54:43.104Z,189.3
2017-11-12T06:55:43.129Z,186.4
2017-11-12T06:56:48.246Z,172.5
2017-11-12T06:57:43.121Z,166.6
2017-11-12T06:58:43.153Z,150
2017-11-12T06:59:43.150Z,153.7
2017-11-12T07:00:43.114Z,157.9
2017-11-12T07:01:43.206Z,145.3
2017-11-12T07:02:43.193Z,139.3
2017-11-12T07:03:43.103Z,135.2
2017-11-12T07:04:43.110Z,140.7
2017-11-12T07:05:43.096Z,137.6
2017-11-12T07:06:43.224Z,138.8
2017-11-12T07:07:43.098Z,140
2017-11-12T07:08:43.062Z,141.3
2017-11-12T07:09:43.061Z,138.1
2017-11-12T07:10:43.108Z,136.4
2017-11-12T07:11:43.190Z,138.2
2017-11-12T07:12:43.184Z,144.1
2017-11-12T07:13:43.081Z,151.4
2017-11-12T07:14:43.102Z,151
2017-11-12T07:15:43.107Z,151
2017-11-12T07:16:43.048Z,137.8
2017-11-12T07:17:43.177Z,139
2017-11-12T07:18:43.121Z,139.3
2017-11-12T07:19:43.140Z,136.9
2017-11-12T07:20:43.053Z,147.7
2017-11-12T07:21:43.118Z,165.8
2017-11-12T07:22:43.136Z,174.3
2017-11-12T07:23:43.080Z,177.4
2017-11-12T07:24:43.037Z,179.5
2017-11-12T07:25:43.124Z,180.4
2017-11-12T07:26:43.048Z,180.2
2017-11-12T07:27:43.172Z,180.1
2017-11-12T07:28:43.117Z,181
2017-11-12T07:29:43.086Z,181.3
2017-11-12T07:30:43.084Z,180.6
2017-11-12T07:31:43.087Z,180.3
2017-11-12T07:32:43.204Z,180.1
2017-11-12T07:33:43.059Z,169.6
2017-11-12T07:34:43.082Z,305.6
2017-11-12T07:35:43.215Z,176.1
2017-11-12T07:36:43.110Z,178.2
2017-11-12T07:37:43.213Z,179.3
2017-11-12T07:38:43.081Z,179.7
2017-11-12T07:39:43.092Z,162.9
2017-11-12T07:40:43.071Z,147.4
2017-11-12T07:41:43.262Z,140.6
2017-11-12T07:42:43.291Z,137.5
2017-11-12T07:43:43.081Z,136.2
2017-11-12T07:44:43.098Z,144.1
2017-11-12T07:45:43.062Z,160.6
2017-11-12T07:46:43.067Z,171.2
2017-11-12T07:47:56.967Z,176
2017-11-12T07:48:43.180Z,178.6
2017-11-12T07:49:43.118Z,180
2017-11-12T07:50:43.131Z,180.8
2017-11-12T07:51:44.224Z,181.3
2017-11-12T07:52:43.055Z,181.6
2017-11-12T07:53:44.580Z,179
2017-11-12T07:54:43.332Z,113.6
2017-11-12T07:55:43.020Z,103.4
2017-11-12T07:56:48.784Z,125.1
2017-11-12T07:57:43.067Z,83.8
2017-11-12T07:58:43.112Z,43.5
2017-11-12T07:59:43.047Z,30.6
2017-11-12T08:00:43.098Z,26
2017-11-12T08:01:43.053Z,24.1
2017-11-12T08:02:43.100Z,20
2017-11-12T08:03:43.143Z,59.7
2017-11-12T08:04:43.069Z,77.7
2017-11-12T08:05:43.063Z,84.7
2017-11-12T08:06:43.110Z,87.6
2017-11-12T08:07:43.054Z,88.9
2017-11-12T08:08:43.089Z,89.5
2017-11-12T08:09:43.031Z,89.8
2017-11-12T08:10:43.069Z,89.9
2017-11-12T08:11:43.043Z,89.9
2017-11-12T08:12:43.041Z,90
2017-11-12T08:13:43.109Z,90
2017-11-12T08:14:43.044Z,90
2017-11-12T08:15:48.147Z,90
2017-11-12T08:16:46.138Z,90
2017-11-12T08:17:49.607Z,90
2017-11-12T08:18:45.708Z,90
2017-11-12T08:19:45.041Z,90
2017-11-12T08:20:46.810Z,90
2017-11-12T08:21:43.076Z,90
2017-11-12T08:22:43.013Z,90
2017-11-12T08:23:43.119Z,90
2017-11-12T08:24:43.060Z,90
2017-11-12T08:25:43.084Z,90
2017-11-12T08:26:43.076Z,90
2017-11-12T08:27:43.082Z,90
2017-11-12T08:28:43.132Z,90
2017-11-12T08:29:43.128Z,90
2017-11-12T08:30:43.021Z,90
2017-11-12T08:31:43.058Z,90
2017-11-12T08:32:43.094Z,90
2017-11-12T08:33:43.902Z,90
2017-11-12T08:34:48.185Z,90
2017-11-12T08:35:45.142Z,90
2017-11-12T08:36:46.660Z,90
2017-11-12T08:37:49.830Z,90
2017-11-12T08:38:50.130Z,90
2017-11-12T08:39:48.529Z,90
2017-11-12T08:40:46.764Z,90
2017-11-12T08:41:45.555Z,90
2017-11-12T08:42:46.874Z,90
2017-11-12T08:43:44.812Z,90
2017-11-12T08:44:44.455Z,90
2017-11-12T08:45:49.705Z,90
2017-11-12T08:46:49.193Z,90
2017-11-12T08:47:46.893Z,90
2017-11-12T08:48:46.988Z,90
2017-11-12T08:49:45.931Z,90
2017-11-12T08:50:50.047Z,90
2017-11-12T08:51:45.533Z,90
2017-11-12T08:52:52.579Z,90
2017-11-12T08:53:51.831Z,90
2017-11-12T08:54:51.901Z,90
2017-11-12T08:55:51.971Z,90
2017-11-12T08:56:52.037Z,90
2017-11-12T08:57:47.118Z,90
2017-11-12T08:58:49.236Z,90
2017-11-12T08:59:45.357Z,90
2017-11-12T09:00:49.324Z,90
2017-11-12T09:01:49.754Z,90
2017-11-12T09:02:46.764Z,90
2017-11-12T09:03:50.872Z,90
2017-11-12T09:04:54.047Z,90
2017-11-12T09:05:44.112Z,90
2017-11-12T09:06:48.778Z,90
2017-11-12T09:07:49.631Z,90
2017-11-12T09:08:47.854Z,90
2017-11-12T09:09:47.909Z,90
2017-11-12T09:10:43.154Z,90
2017-11-12T09:11:43.147Z,90
2017-11-12T09:12:43.088Z,90
2017-11-12T09:13:43.036Z,90
2017-11-12T09:14:43.168Z,90
2017-11-12T09:15:43.222Z,90
2017-11-12T09:16:43.032Z,90
2017-11-12T09:17:43.068Z,90
2017-11-12T09:18:43.015Z,90
2017-11-12T09:19:43.644Z,90
2017-11-12T09:20:43.849Z,90
2017-11-12T09:21:43.011Z,90
2017-11-12T09:22:43.028Z,90
2017-11-12T09:23:43.054Z,90
2017-11-12T09:24:43.130Z,90
2017-11-12T09:25:43.026Z,90
2017-11-12T09:26:43.115Z,90
2017-11-12T09:27:43.015Z,90
2017-11-12T09:28:43.037Z,90
2017-11-12T09:29:43.562Z,90
2017-11-12T09:30:43.575Z,90
2017-11-12T09:31:43.037Z,90
2017-11-12T09:32:43.039Z,90
2017-11-12T09:33:43.047Z,90
2017-11-12T09:34:43.923Z,90
2017-11-12T09:35:43.078Z,90
2017-11-12T09:36:43.070Z,90
2017-11-12T09:37:43.062Z,90
2017-11-12T09:38:43.036Z,90
2017-11-12T09:39:46.438Z,90
2017-11-12T09:40:43.190Z,90
2017-11-12T09:41:43.075Z,90
2017-11-12T09:42:43.092Z,80.4
2017-11-12T09:43:44.040Z,73.5
2017-11-12T09:44:43.032Z,64
2017-11-12T09:45:43.108Z,53.7
2017-11-12T09:46:43.051Z,49
2017-11-12T09:47:53.385Z,46.9
2017-11-12T09:48:43.071Z,69.4
2017-11-12T09:49:43.194Z,80.8
2017-11-12T09:50:43.052Z,85.8
2017-11-12T09:51:43.030Z,88.1
2017-11-12T09:52:43.072Z,89.1
2017-11-12T09:53:43.091Z,89.6
2017-11-12T09:54:43.135Z,89.8
2017-11-12T09:55:43.248Z,89.9
2017-11-12T09:56:43.119Z,90
2017-11-12T09:57:43.140Z,90
2017-11-12T09:58:43.087Z,79.4
2017-11-12T09:59:43.135Z,80.2
2017-11-12T10:00:43.115Z,85.5
2017-11-12T10:01:43.082Z,87.9
2017-11-12T10:02:42.976Z,89
2017-11-12T10:03:43.954Z,89.5
2017-11-12T10:04:43.059Z,77.8
2017-11-12T10:05:43.103Z,72.1
2017-11-12T10:06:43.049Z,62.6
2017-11-12T10:07:43.032Z,77.5
2017-11-12T10:08:43.092Z,84.3
2017-11-12T10:09:44.341Z,87.4
2017-11-12T10:10:43.247Z,88.8
2017-11-12T10:11:43.068Z,89.4
2017-11-12T10:12:43.039Z,89.7
2017-11-12T10:13:43.022Z,89.9
2017-11-12T10:14:43.080Z,91.9
2017-11-12T10:15:42.972Z,90.9
2017-11-12T10:16:45.913Z,90.4
2017-11-12T10:17:43.025Z,90.2
2017-11-12T10:18:43.001Z,90.1
2017-11-12T10:19:45.884Z,90
2017-11-12T10:20:43.034Z,87.9
2017-11-12T10:21:43.002Z,34.5
2017-11-12T10:22:43.034Z,12.6
2017-11-12T10:23:43.057Z,5.2
2017-11-12T10:24:42.969Z,2.3
2017-11-12T10:25:43.050Z,1.1
2017-11-12T10:26:43.047Z,0.5
2017-11-12T10:27:43.037Z,0.2
2017-11-12T10:28:42.993Z,0.1
2017-11-12T10:29:43.030Z,0
2017-11-12T10:30:43.090Z,0
2017-11-12T10:31:43.006Z,0
2017-11-12T10:32:43.091Z,0
2017-11-12T10:33:43.053Z,0
2017-11-12T10:34:43.027Z,0
2017-11-12T10:35:43.076Z,0
2017-11-12T10:36:43.056Z,0
2017-11-12T10:37:42.982Z,0
2017-11-12T10:38:43.064Z,0
2017-11-12T10:39:43.024Z,0
2017-11-12T10:40:43.105Z,0
2017-11-12T10:41:43.052Z,0
2017-11-12T10:42:42.988Z,0
2017-11-12T10:43:43.092Z,0
2017-11-12T10:44:43.005Z,0
2017-11-12T10:45:43.027Z,0
2017-11-12T10:46:43.041Z,0
2017-11-12T10:47:42.956Z,0
2017-11-12T10:48:47.605Z,0
2017-11-12T10:49:45.709Z,0
2017-11-12T10:50:43.088Z,0
2017-11-12T10:51:43.354Z,0
2017-11-12T10:52:43.044Z,0
2017-11-12T10:53:43.014Z,0
2017-11-12T10:54:42.972Z,0
2017-11-12T10:55:43.125Z,0
2017-11-12T10:56:42.993Z,0
2017-11-12T10:57:43.638Z,0
2017-11-12T10:58:43.209Z,0
2017-11-12T10:59:42.967Z,0
2017-11-12T11:00:43.084Z,0
2017-11-12T11:01:42.935Z,0
2017-11-12T11:02:42.994Z,0
2017-11-12T11:03:43.379Z,0
2017-11-12T11:04:44.528Z,0
2017-11-12T11:05:43.356Z,352.2
2017-11-12T11:06:43.149Z,347.9
2017-11-12T11:07:44.941Z,354.5
2017-11-12T11:08:43.336Z,357.4
2017-11-12T11:09:43.410Z,358.8
2017-11-12T11:10:43.518Z,359.4
2017-11-12T11:11:46.334Z,359.7
2017-11-12T11:12:44.163Z,359.9
2017-11-12T11:13:43.405Z,359.9
2017-11-12T11:14:43.595Z,360
2017-11-12T11:15:44.262Z,360
2017-11-12T11:16:45.379Z,358.1
2017-11-12T11:17:45.207Z,23
2017-11-12T11:18:43.162Z,35.2
2017-11-12T11:19:45.130Z,31
2017-11-12T11:20:43.505Z,13.1
2017-11-12T11:21:45.953Z,5.8
2017-11-12T11:22:43.625Z,2.7
2017-11-12T11:23:44.230Z,1.2
2017-11-12T11:24:43.856Z,23
2017-11-12T11:25:44.267Z,31
2017-11-12T11:26:53.115Z,47.6
2017-11-12T11:27:43.526Z,51.5
2017-11-12T11:28:43.633Z,28.8
2017-11-12T11:29:44.284Z,16.3
2017-11-12T11:30:44.737Z,31.4
2017-11-12T11:31:43.068Z,7.8
2017-11-12T11:32:43.118Z,334
2017-11-12T11:33:42.987Z,322.6
2017-11-12T11:34:42.948Z,318.3
2017-11-12T11:35:43.143Z,316.5
2017-11-12T11:36:43.960Z,304.4
2017-11-12T11:37:43.314Z,297.8
2017-11-12T11:38:43.136Z,336.7
2017-11-12T11:39:44.884Z,359.6
2017-11-12T11:40:45.720Z,359.8
2017-11-12T11:41:42.966Z,359.9
2017-11-12T11:42:43.022Z,360
2017-11-12T11:43:59.385Z,338.7
2017-11-12T11:44:47.281Z,319
2017-11-12T11:45:43.926Z,291.5
2017-11-12T11:46:43.765Z,279.3
2017-11-12T11:47:44.949Z,274.2
2017-11-12T11:48:45.888Z,291.4
2017-11-12T11:49:43.049Z,304.5
2017-11-12T11:50:45.100Z,310.3
2017-11-12T11:51:44.021Z,312.8
2017-11-12T11:52:43.412Z,329.5
2017-11-12T11:53:46.547Z,321.2
2017-11-12T11:54:44.586Z,317.8
2017-11-12T11:55:44.502Z,309.6
2017-11-12T11:56:44.038Z,289.1
2017-11-12T11:57:43.215Z,278.5
2017-11-12T11:58:43.080Z,266
2017-11-12T11:59:43.186Z,189.8
2017-11-12T12:00:43.213Z,149.1
2017-11-12T12:01:43.262Z,126.8
2017-11-12T12:02:43.522Z,104.3
2017-11-12T12:03:43.105Z,96.1
2017-11-12T12:04:43.163Z,92.8
2017-11-12T12:05:43.233Z,91.3
2017-11-12T12:06:47.392Z,90.6
2017-11-12T12:07:43.471Z,90.3
2017-11-12T12:08:43.036Z,90.1
2017-11-12T12:09:43.299Z,90.1
2017-11-12T12:10:43.387Z,90
2017-11-12T12:11:43.769Z,90
2017-11-12T12:12:43.212Z,90
2017-11-12T12:13:43.195Z,90
2017-11-12T12:14:43.040Z,90
2017-11-12T12:15:43.296Z,90
2017-11-12T12:16:45.089Z,90
2017-11-12T12:17:44.945Z,90
2017-11-12T12:18:43.111Z,90
2017-11-12T12:19:43.076Z,90
2017-11-12T12:20:42.994Z,90
2017-11-12T12:21:44.859Z,90
2017-11-12T12:22:43.005Z,90
2017-11-12T12:23:43.021Z,90
2017-11-12T12:24:45.970Z,90
2017-11-12T12:25:46.777Z,90
2017-11-12T12:26:43.490Z,90
2017-11-12T12:27:44.430Z,90
2017-11-12T12:28:43.909Z,90
2017-11-12T12:29:43.278Z,90
2017-11-12T12:30:43.196Z,90
2017-11-12T12:31:43.299Z,90
2017-11-12T12:32:43.130Z,90
2017-11-12T12:33:45.680Z,90
2017-11-12T12:34:43.000Z,90
2017-11-12T12:35:43.207Z,90
2017-11-12T12:36:43.217Z,90
2017-11-12T12:37:43.152Z,90
2017-11-12T12:38:43.625Z,90
2017-11-12T12:39:43.962Z,90
2017-11-12T12:40:43.085Z,90
2017-11-12T12:41:43.270Z,90
2017-11-12T12:42:43.132Z,90
2017-11-12T12:43:42.920Z,90
2017-11-12T12:44:43.005Z,90
2017-11-12T12:45:42.931Z,90
2017-11-12T12:46:43.036Z,90
2017-11-12T12:47:44.181Z,90
2017-11-12T12:48:43.228Z,90
2017-11-12T12:49:43.835Z,94.1
2017-11-12T12:50:42.897Z,103.9
2017-11-12T12:51:43.070Z,108.5
2017-11-12T12:52:43.624Z,110.7
2017-11-12T12:53:42.983Z,111.6
2017-11-12T12:54:42.973Z,112.1
2017-11-12T12:55:42.902Z,109.7
2017-11-12T12:56:43.154Z,99.2
2017-11-12T12:57:45.257Z,94.2
2017-11-12T12:58:43.405Z,92
2017-11-12T12:59:52.849Z,90.9
2017-11-12T13:00:45.091Z,90.4
2017-11-12T13:01:43.617Z,90.2
2017-11-12T13:02:43.230Z,90.1
2017-11-12T13:03:53.516Z,90
2017-11-12T13:04:45.011Z,90
2017-11-12T13:05:43.159Z,90
2017-11-12T13:06:43.031Z,90
2017-11-12T13:07:43.157Z,90
2017-11-12T13:08:43.041Z,90
2017-11-12T13:09:43.058Z,90
2017-11-12T13:10:43.872Z,90
2017-11-12T13:11:45.142Z,90
2017-11-12T13:12:53.094Z,90
2017-11-12T13:13:44.090Z,90
2017-11-12T13:14:44.156Z,90
2017-11-12T13:15:47.555Z,90
2017-11-12T13:16:43.061Z,90
2017-11-12T13:17:43.468Z,90
2017-11-12T13:18:44.350Z,90
2017-11-12T13:19:43.274Z,90
2017-11-12T13:20:43.149Z,90
2017-11-12T13:21:43.387Z,90
2017-11-12T13:22:43.110Z,90
2017-11-12T13:23:42.965Z,91.1
2017-11-12T13:24:43.100Z,98.3
2017-11-12T13:25:43.092Z,93.9
2017-11-12T13:26:43.026Z,91.8
2017-11-12T13:27:43.159Z,90.8
2017-11-12T13:28:43.121Z,90.4